Phillips Camp, TX

5:27 PM CST on December 02, 2016 (GMT -0600)
| | Change Station
Active Advisory: Winter Weather Advisory

Elev -9999 ft 0.00 °N, 0.00 °E | Updated

Overcast
Overcast
°F
Feels Like °F
N
Wind Variable Wind from North
Gusts mph

Today
High -- | Low -- °F
--% Chance of Precip.
Yesterday
High -- | Low -- °F
Precip. -- in
Pressure 30.17 in
Visibility 10.0 miles
Clouds Mostly Cloudy 6000 ft
Overcast 8000 ft
Dew Point Not available.
Humidity Not available.
Rainfall --
Snow Depth Not available.
7:40 AM 5:30 PM
Waxing Crescent, 11% visible
METAR KGUY 022253Z AUTO 05010G17KT 10SM BKN060 OVC080 08/M11 A3015 RMK AO2 SLP215 T00781111
Pressure 30.17 in
Visibility 10.0 miles
Clouds Mostly Cloudy 6000 ft
Overcast 8000 ft
Dew Point Not available.
Humidity Not available.
Rainfall --
Snow Depth Not available.
7:40 AM 5:30 PM
Waxing Crescent, 11% visible
METAR KGUY 022253Z AUTO 05010G17KT 10SM BKN060 OVC080 08/M11 A3015 RMK AO2 SLP215 T00781111

10-Day Weather Forecast

Almanac

Astronomy

Dec. 02, 2016 Rise Set
Actual Time
Civil Twilight
Nautical Twilight
Astronomical Twilight
Moon
Length of Visible Light
Length of Day
Tomorrow will be .
, % of the Moon is Illuminated

Today's Extremes

State Highs State Lows

Community

WunderPhotos

Upload Photos

1,955,378 photos uploaded!

WunderBlog® & News

Nearby

Air Quality

  Air Quality AQ Index Pollutant
Not available.

Snow Depth

Station Depth Elevation

Earthquake Activity

City Distance Mag. Time & Date
Minimum magnitude displayed is 2.5.

Coastal Water Temperatures

Place Temperature

Stations

Nearby Weather Stations

Station Location Temp. Windchill Dew Point Humidity Wind Precip. Elev Updated Type
                   

Watches & Warnings

Winter Weather Advisory
Issued: 3:42 PM CST Dec. 2, 2016 – National Weather Service

... Winter Weather Advisory remains in effect until noon CST
Saturday...

* event... rain is expected to transition to a wintry mixture before
becoming snow across the western and northern Texas Panhandle as
well as the Oklahoma Panhandle. Snow amounts for this portion of
the combined panhandles are anticipated to range from 1 to 2 inches.
The higher end of snowfall totals are expected across the
southwestern Texas Panhandle. Snow is expected to transition back
to rain by Saturday afternoon.

* Timing... this evening through noon Saturday.

* Impacts... roads... bridges... and overpasses in the advisory
area may become slick and hazardous. Exercise caution if
traveling on area roadways.

Precautionary/preparedness actions...

A Winter Weather Advisory means that periods of snow... sleet... or
freezing rain will cause travel difficulties. Be prepared for
slippery roads and limited visibilities... and use caution while
driving.